sensor_id;sensor_type;location;lat;lon;timestamp;P1;durP1;ratioP1;P2;durP2;ratioP2
20042;SDS011;10182;52.896;6.496;2023-06-01T00:01:52;12.33;;;6.10;;
20042;SDS011;10182;52.896;6.496;2023-06-01T00:06:53;16.77;;;7.30;;
20042;SDS011;10182;52.896;6.496;2023-06-01T00:12:15;11.63;;;6.43;;
20042;SDS011;10182;52.896;6.496;2023-06-01T00:17:18;16.30;;;6.23;;
20042;SDS011;10182;52.896;6.496;2023-06-01T00:22:20;13.47;;;6.60;;
20042;SDS011;10182;52.896;6.496;2023-06-01T00:27:24;13.53;;;6.77;;
20042;SDS011;10182;52.896;6.496;2023-06-01T00:32:27;14.00;;;7.17;;
20042;SDS011;10182;52.896;6.496;2023-06-01T00:37:28;12.87;;;7.13;;
20042;SDS011;10182;52.896;6.496;2023-06-01T00:42:30;18.70;;;7.97;;
20042;SDS011;10182;52.896;6.496;2023-06-01T00:47:35;10.87;;;6.50;;
20042;SDS011;10182;52.896;6.496;2023-06-01T00:52:42;12.60;;;6.80;;
20042;SDS011;10182;52.896;6.496;2023-06-01T00:57:44;13.23;;;6.93;;
20042;SDS011;10182;52.896;6.496;2023-06-01T01:02:48;14.50;;;6.63;;
20042;SDS011;10182;52.896;6.496;2023-06-01T01:07:58;16.03;;;7.00;;
20042;SDS011;10182;52.896;6.496;2023-06-01T01:13:06;13.23;;;6.97;;
20042;SDS011;10182;52.896;6.496;2023-06-01T01:18:16;10.07;;;7.00;;
20042;SDS011;10182;52.896;6.496;2023-06-01T01:23:38;12.77;;;7.37;;
20042;SDS011;10182;52.896;6.496;2023-06-01T01:28:52;11.67;;;6.53;;
20042;SDS011;10182;52.896;6.496;2023-06-01T01:33:58;14.93;;;7.10;;
20042;SDS011;10182;52.896;6.496;2023-06-01T01:45:10;9.83;;;6.20;;
20042;SDS011;10182;52.896;6.496;2023-06-01T01:50:12;12.10;;;5.93;;
20042;SDS011;10182;52.896;6.496;2023-06-01T01:55:17;11.13;;;6.47;;
20042;SDS011;10182;52.896;6.496;2023-06-01T02:00:25;14.37;;;6.53;;
20042;SDS011;10182;52.896;6.496;2023-06-01T02:05:27;12.03;;;6.37;;
20042;SDS011;10182;52.896;6.496;2023-06-01T02:10:28;9.60;;;5.83;;
20042;SDS011;10182;52.896;6.496;2023-06-01T02:15:32;12.20;;;6.77;;
20042;SDS011;10182;52.896;6.496;2023-06-01T02:20:33;15.07;;;6.63;;
20042;SDS011;10182;52.896;6.496;2023-06-01T02:25:35;12.97;;;7.30;;
20042;SDS011;10182;52.896;6.496;2023-06-01T02:30:38;12.97;;;7.07;;
20042;SDS011;10182;52.896;6.496;2023-06-01T02:35:40;12.80;;;6.80;;
20042;SDS011;10182;52.896;6.496;2023-06-01T02:40:42;14.63;;;6.93;;
20042;SDS011;10182;52.896;6.496;2023-06-01T02:45:45;17.20;;;7.27;;
20042;SDS011;10182;52.896;6.496;2023-06-01T02:50:47;14.80;;;6.03;;
20042;SDS011;10182;52.896;6.496;2023-06-01T02:55:48;13.20;;;6.53;;
20042;SDS011;10182;52.896;6.496;2023-06-01T03:00:51;13.53;;;6.67;;
20042;SDS011;10182;52.896;6.496;2023-06-01T03:05:53;12.90;;;6.63;;
20042;SDS011;10182;52.896;6.496;2023-06-01T03:10:55;10.97;;;6.60;;
20042;SDS011;10182;52.896;6.496;2023-06-01T03:15:58;12.67;;;7.10;;
20042;SDS011;10182;52.896;6.496;2023-06-01T03:21:00;15.93;;;6.60;;
20042;SDS011;10182;52.896;6.496;2023-06-01T03:26:02;11.50;;;5.83;;
20042;SDS011;10182;52.896;6.496;2023-06-01T03:31:06;10.63;;;5.50;;
20042;SDS011;10182;52.896;6.496;2023-06-01T03:36:11;8.97;;;5.20;;
20042;SDS011;10182;52.896;6.496;2023-06-01T03:41:13;14.43;;;5.37;;
20042;SDS011;10182;52.896;6.496;2023-06-01T03:46:16;10.33;;;5.10;;
20042;SDS011;10182;52.896;6.496;2023-06-01T03:51:17;7.83;;;5.50;;
20042;SDS011;10182;52.896;6.496;2023-06-01T03:56:19;7.77;;;4.07;;
20042;SDS011;10182;52.896;6.496;2023-06-01T04:01:22;12.23;;;4.97;;
20042;SDS011;10182;52.896;6.496;2023-06-01T04:06:24;8.23;;;4.80;;
20042;SDS011;10182;52.896;6.496;2023-06-01T04:11:29;7.50;;;4.70;;
20042;SDS011;10182;52.896;6.496;2023-06-01T04:16:32;12.33;;;5.50;;
20042;SDS011;10182;52.896;6.496;2023-06-01T04:21:34;8.43;;;5.43;;
20042;SDS011;10182;52.896;6.496;2023-06-01T04:26:36;9.53;;;5.90;;
20042;SDS011;10182;52.896;6.496;2023-06-01T04:31:39;7.37;;;5.07;;
20042;SDS011;10182;52.896;6.496;2023-06-01T04:36:41;10.70;;;5.87;;
20042;SDS011;10182;52.896;6.496;2023-06-01T04:41:44;15.80;;;5.97;;
20042;SDS011;10182;52.896;6.496;2023-06-01T04:46:48;10.53;;;5.40;;
20042;SDS011;10182;52.896;6.496;2023-06-01T04:51:50;12.23;;;5.83;;
20042;SDS011;10182;52.896;6.496;2023-06-01T04:56:51;12.60;;;6.03;;
20042;SDS011;10182;52.896;6.496;2023-06-01T05:01:54;11.70;;;5.53;;
20042;SDS011;10182;52.896;6.496;2023-06-01T05:06:56;8.07;;;5.30;;
20042;SDS011;10182;52.896;6.496;2023-06-01T05:11:58;12.73;;;5.60;;
20042;SDS011;10182;52.896;6.496;2023-06-01T05:17:01;11.23;;;5.73;;
20042;SDS011;10182;52.896;6.496;2023-06-01T05:22:03;12.73;;;5.73;;
20042;SDS011;10182;52.896;6.496;2023-06-01T05:27:05;9.07;;;5.83;;
20042;SDS011;10182;52.896;6.496;2023-06-01T05:32:09;10.57;;;5.87;;
20042;SDS011;10182;52.896;6.496;2023-06-01T05:37:10;13.00;;;6.90;;
20042;SDS011;10182;52.896;6.496;2023-06-01T05:42:12;13.10;;;6.90;;
20042;SDS011;10182;52.896;6.496;2023-06-01T05:47:15;10.60;;;6.30;;
20042;SDS011;10182;52.896;6.496;2023-06-01T05:52:17;14.93;;;6.27;;
20042;SDS011;10182;52.896;6.496;2023-06-01T05:57:19;11.57;;;5.77;;
20042;SDS011;10182;52.896;6.496;2023-06-01T06:02:22;12.23;;;5.90;;
20042;SDS011;10182;52.896;6.496;2023-06-01T06:07:23;9.43;;;6.23;;
20042;SDS011;10182;52.896;6.496;2023-06-01T06:12:25;11.07;;;5.20;;
20042;SDS011;10182;52.896;6.496;2023-06-01T06:17:28;16.40;;;6.70;;
20042;SDS011;10182;52.896;6.496;2023-06-01T06:22:30;8.37;;;4.43;;
20042;SDS011;10182;52.896;6.496;2023-06-01T06:27:31;7.00;;;4.93;;
20042;SDS011;10182;52.896;6.496;2023-06-01T06:32:34;10.63;;;5.17;;
20042;SDS011;10182;52.896;6.496;2023-06-01T06:37:36;8.57;;;4.57;;
20042;SDS011;10182;52.896;6.496;2023-06-01T06:42:38;10.07;;;5.23;;
20042;SDS011;10182;52.896;6.496;2023-06-01T06:47:41;8.93;;;5.00;;
20042;SDS011;10182;52.896;6.496;2023-06-01T06:52:45;8.90;;;4.83;;
20042;SDS011;10182;52.896;6.496;2023-06-01T06:57:47;9.57;;;4.73;;
20042;SDS011;10182;52.896;6.496;2023-06-01T07:02:50;11.00;;;5.77;;
20042;SDS011;10182;52.896;6.496;2023-06-01T07:07:52;12.17;;;5.10;;
20042;SDS011;10182;52.896;6.496;2023-06-01T07:12:53;11.73;;;5.77;;
20042;SDS011;10182;52.896;6.496;2023-06-01T07:17:56;10.33;;;5.83;;
20042;SDS011;10182;52.896;6.496;2023-06-01T07:22:58;10.00;;;5.10;;
20042;SDS011;10182;52.896;6.496;2023-06-01T07:28:00;9.77;;;4.63;;
20042;SDS011;10182;52.896;6.496;2023-06-01T07:33:08;11.23;;;5.10;;
20042;SDS011;10182;52.896;6.496;2023-06-01T07:38:10;7.97;;;4.20;;
20042;SDS011;10182;52.896;6.496;2023-06-01T07:43:12;8.13;;;4.20;;
20042;SDS011;10182;52.896;6.496;2023-06-01T07:48:15;7.43;;;3.90;;
20042;SDS011;10182;52.896;6.496;2023-06-01T07:53:16;5.10;;;3.00;;
20042;SDS011;10182;52.896;6.496;2023-06-01T07:58:19;6.87;;;3.70;;
20042;SDS011;10182;52.896;6.496;2023-06-01T08:03:22;8.37;;;4.07;;
20042;SDS011;10182;52.896;6.496;2023-06-01T08:08:25;8.87;;;3.93;;
20042;SDS011;10182;52.896;6.496;2023-06-01T08:13:27;6.67;;;3.93;;
20042;SDS011;10182;52.896;6.496;2023-06-01T08:18:30;5.00;;;3.10;;
20042;SDS011;10182;52.896;6.496;2023-06-01T08:23:32;5.07;;;3.43;;
20042;SDS011;10182;52.896;6.496;2023-06-01T08:28:34;3.63;;;3.33;;
20042;SDS011;10182;52.896;6.496;2023-06-01T08:33:39;4.93;;;2.90;;
20042;SDS011;10182;52.896;6.496;2023-06-01T08:38:41;4.77;;;2.77;;
20042;SDS011;10182;52.896;6.496;2023-06-01T08:43:43;6.37;;;2.30;;
20042;SDS011;10182;52.896;6.496;2023-06-01T08:48:52;4.10;;;2.00;;
20042;SDS011;10182;52.896;6.496;2023-06-01T08:53:56;9.33;;;2.63;;
20042;SDS011;10182;52.896;6.496;2023-06-01T08:59:01;5.33;;;2.27;;
20042;SDS011;10182;52.896;6.496;2023-06-01T09:04:05;4.17;;;2.47;;
20042;SDS011;10182;52.896;6.496;2023-06-01T09:09:08;9.30;;;2.90;;
20042;SDS011;10182;52.896;6.496;2023-06-01T09:14:22;2.43;;;1.30;;
20042;SDS011;10182;52.896;6.496;2023-06-01T09:19:26;5.70;;;1.57;;
20042;SDS011;10182;52.896;6.496;2023-06-01T09:24:42;2.67;;;1.50;;
20042;SDS011;10182;52.896;6.496;2023-06-01T09:29:57;3.27;;;1.20;;
20042;SDS011;10182;52.896;6.496;2023-06-01T09:35:01;1.30;;;1.20;;
20042;SDS011;10182;52.896;6.496;2023-06-01T09:40:05;4.70;;;1.33;;
20042;SDS011;10182;52.896;6.496;2023-06-01T09:45:18;7.47;;;2.40;;
20042;SDS011;10182;52.896;6.496;2023-06-01T09:50:36;4.90;;;2.67;;
20042;SDS011;10182;52.896;6.496;2023-06-01T09:55:46;10.53;;;4.40;;
20042;SDS011;10182;52.896;6.496;2023-06-01T10:00:58;10.07;;;4.20;;
20042;SDS011;10182;52.896;6.496;2023-06-01T10:06:03;6.93;;;4.33;;
20042;SDS011;10182;52.896;6.496;2023-06-01T10:11:06;9.33;;;4.37;;
20042;SDS011;10182;52.896;6.496;2023-06-01T10:16:09;6.77;;;3.73;;
20042;SDS011;10182;52.896;6.496;2023-06-01T10:21:14;8.60;;;4.03;;
20042;SDS011;10182;52.896;6.496;2023-06-01T10:26:16;12.00;;;4.33;;
20042;SDS011;10182;52.896;6.496;2023-06-01T10:31:36;12.50;;;4.33;;
20042;SDS011;10182;52.896;6.496;2023-06-01T10:42:35;11.13;;;4.30;;
20042;SDS011;10182;52.896;6.496;2023-06-01T10:47:44;8.83;;;4.03;;
20042;SDS011;10182;52.896;6.496;2023-06-01T10:52:49;13.40;;;4.87;;
20042;SDS011;10182;52.896;6.496;2023-06-01T10:57:51;7.70;;;4.50;;
20042;SDS011;10182;52.896;6.496;2023-06-01T11:03:13;8.80;;;4.17;;
20042;SDS011;10182;52.896;6.496;2023-06-01T11:14:06;13.10;;;3.80;;
20042;SDS011;10182;52.896;6.496;2023-06-01T11:19:09;9.03;;;3.50;;
20042;SDS011;10182;52.896;6.496;2023-06-01T11:24:13;11.03;;;3.33;;
20042;SDS011;10182;52.896;6.496;2023-06-01T11:29:16;10.90;;;3.87;;
20042;SDS011;10182;52.896;6.496;2023-06-01T11:34:19;8.70;;;3.80;;
20042;SDS011;10182;52.896;6.496;2023-06-01T11:39:33;7.87;;;3.40;;
20042;SDS011;10182;52.896;6.496;2023-06-01T11:44:35;10.70;;;3.13;;
20042;SDS011;10182;52.896;6.496;2023-06-01T11:49:41;6.03;;;2.93;;
20042;SDS011;10182;52.896;6.496;2023-06-01T11:54:46;5.10;;;3.23;;
20042;SDS011;10182;52.896;6.496;2023-06-01T11:59:48;7.83;;;3.17;;
20042;SDS011;10182;52.896;6.496;2023-06-01T12:04:54;7.67;;;3.90;;
20042;SDS011;10182;52.896;6.496;2023-06-01T12:09:58;10.03;;;3.90;;
20042;SDS011;10182;52.896;6.496;2023-06-01T12:15:01;9.07;;;3.60;;
20042;SDS011;10182;52.896;6.496;2023-06-01T12:20:04;6.87;;;4.23;;
20042;SDS011;10182;52.896;6.496;2023-06-01T12:25:08;9.10;;;3.27;;
20042;SDS011;10182;52.896;6.496;2023-06-01T12:30:19;6.37;;;3.17;;
20042;SDS011;10182;52.896;6.496;2023-06-01T12:35:22;7.40;;;3.63;;
20042;SDS011;10182;52.896;6.496;2023-06-01T12:40:25;6.97;;;3.33;;
20042;SDS011;10182;52.896;6.496;2023-06-01T12:45:34;6.77;;;3.60;;
20042;SDS011;10182;52.896;6.496;2023-06-01T12:50:42;6.07;;;3.37;;
20042;SDS011;10182;52.896;6.496;2023-06-01T12:55:46;14.43;;;4.57;;
20042;SDS011;10182;52.896;6.496;2023-06-01T13:00:48;7.73;;;3.50;;
20042;SDS011;10182;52.896;6.496;2023-06-01T13:05:50;10.13;;;3.73;;
20042;SDS011;10182;52.896;6.496;2023-06-01T13:10:53;11.77;;;4.07;;
20042;SDS011;10182;52.896;6.496;2023-06-01T13:15:55;8.63;;;3.57;;
20042;SDS011;10182;52.896;6.496;2023-06-01T13:20:56;7.70;;;4.00;;
20042;SDS011;10182;52.896;6.496;2023-06-01T13:25:59;9.47;;;4.10;;
20042;SDS011;10182;52.896;6.496;2023-06-01T13:31:01;7.70;;;3.83;;
20042;SDS011;10182;52.896;6.496;2023-06-01T13:36:03;8.20;;;3.80;;
20042;SDS011;10182;52.896;6.496;2023-06-01T13:41:07;8.73;;;3.93;;
20042;SDS011;10182;52.896;6.496;2023-06-01T13:46:09;9.63;;;3.60;;
20042;SDS011;10182;52.896;6.496;2023-06-01T13:51:12;7.23;;;3.30;;
20042;SDS011;10182;52.896;6.496;2023-06-01T13:56:15;6.87;;;3.77;;
20042;SDS011;10182;52.896;6.496;2023-06-01T14:01:17;7.17;;;3.77;;
20042;SDS011;10182;52.896;6.496;2023-06-01T14:06:19;7.63;;;3.93;;
20042;SDS011;10182;52.896;6.496;2023-06-01T14:11:22;6.77;;;3.60;;
20042;SDS011;10182;52.896;6.496;2023-06-01T14:16:23;8.73;;;4.03;;
20042;SDS011;10182;52.896;6.496;2023-06-01T14:21:25;9.97;;;3.37;;
20042;SDS011;10182;52.896;6.496;2023-06-01T14:26:30;7.10;;;3.00;;
20042;SDS011;10182;52.896;6.496;2023-06-01T14:31:31;10.20;;;3.90;;
20042;SDS011;10182;52.896;6.496;2023-06-01T14:36:33;9.27;;;3.30;;
20042;SDS011;10182;52.896;6.496;2023-06-01T14:41:37;7.97;;;3.80;;
20042;SDS011;10182;52.896;6.496;2023-06-01T14:46:41;9.83;;;4.20;;
20042;SDS011;10182;52.896;6.496;2023-06-01T14:51:42;4.90;;;3.70;;
20042;SDS011;10182;52.896;6.496;2023-06-01T14:56:45;6.23;;;4.03;;
20042;SDS011;10182;52.896;6.496;2023-06-01T15:01:47;6.33;;;3.37;;
20042;SDS011;10182;52.896;6.496;2023-06-01T15:06:49;8.90;;;3.60;;
20042;SDS011;10182;52.896;6.496;2023-06-01T15:11:52;9.97;;;4.07;;
20042;SDS011;10182;52.896;6.496;2023-06-01T15:16:53;5.90;;;3.97;;
20042;SDS011;10182;52.896;6.496;2023-06-01T15:21:55;8.33;;;3.40;;
20042;SDS011;10182;52.896;6.496;2023-06-01T15:26:58;8.93;;;3.40;;
20042;SDS011;10182;52.896;6.496;2023-06-01T15:32:01;12.27;;;3.47;;
20042;SDS011;10182;52.896;6.496;2023-06-01T15:37:03;6.97;;;3.03;;
20042;SDS011;10182;52.896;6.496;2023-06-01T15:42:07;6.10;;;2.93;;
20042;SDS011;10182;52.896;6.496;2023-06-01T15:47:10;9.80;;;3.37;;
20042;SDS011;10182;52.896;6.496;2023-06-01T15:52:12;3.97;;;2.87;;
20042;SDS011;10182;52.896;6.496;2023-06-01T15:57:15;3.50;;;2.67;;
20042;SDS011;10182;52.896;6.496;2023-06-01T16:02:17;3.13;;;2.33;;
20042;SDS011;10182;52.896;6.496;2023-06-01T16:07:19;3.53;;;2.47;;
20042;SDS011;10182;52.896;6.496;2023-06-01T16:12:22;4.73;;;2.40;;
20042;SDS011;10182;52.896;6.496;2023-06-01T16:17:23;3.83;;;2.30;;
20042;SDS011;10182;52.896;6.496;2023-06-01T16:22:25;5.40;;;2.70;;
20042;SDS011;10182;52.896;6.496;2023-06-01T16:27:28;6.30;;;2.47;;
20042;SDS011;10182;52.896;6.496;2023-06-01T16:32:30;5.50;;;2.63;;
20042;SDS011;10182;52.896;6.496;2023-06-01T16:37:32;4.80;;;2.60;;
20042;SDS011;10182;52.896;6.496;2023-06-01T16:42:35;6.57;;;2.17;;
20042;SDS011;10182;52.896;6.496;2023-06-01T16:47:37;8.37;;;2.67;;
20042;SDS011;10182;52.896;6.496;2023-06-01T16:52:38;2.57;;;1.97;;
20042;SDS011;10182;52.896;6.496;2023-06-01T16:57:41;5.03;;;2.10;;
20042;SDS011;10182;52.896;6.496;2023-06-01T17:02:43;6.37;;;1.80;;
20042;SDS011;10182;52.896;6.496;2023-06-01T17:07:45;8.50;;;2.40;;
20042;SDS011;10182;52.896;6.496;2023-06-01T17:12:48;5.27;;;2.47;;
20042;SDS011;10182;52.896;6.496;2023-06-01T17:17:50;8.10;;;2.57;;
20042;SDS011;10182;52.896;6.496;2023-06-01T17:22:52;4.90;;;2.07;;
20042;SDS011;10182;52.896;6.496;2023-06-01T17:27:55;7.67;;;2.70;;
20042;SDS011;10182;52.896;6.496;2023-06-01T17:32:57;9.53;;;2.93;;
20042;SDS011;10182;52.896;6.496;2023-06-01T17:37:59;15.33;;;3.80;;
20042;SDS011;10182;52.896;6.496;2023-06-01T17:43:02;9.87;;;3.67;;
20042;SDS011;10182;52.896;6.496;2023-06-01T17:48:04;8.30;;;3.23;;
20042;SDS011;10182;52.896;6.496;2023-06-01T17:53:06;10.83;;;3.10;;
20042;SDS011;10182;52.896;6.496;2023-06-01T17:58:11;5.07;;;2.33;;
20042;SDS011;10182;52.896;6.496;2023-06-01T18:03:13;9.03;;;3.40;;
20042;SDS011;10182;52.896;6.496;2023-06-01T18:08:14;4.83;;;2.73;;
20042;SDS011;10182;52.896;6.496;2023-06-01T18:13:18;12.40;;;3.63;;
20042;SDS011;10182;52.896;6.496;2023-06-01T18:18:19;7.80;;;3.70;;
20042;SDS011;10182;52.896;6.496;2023-06-01T18:23:21;9.30;;;3.37;;
20042;SDS011;10182;52.896;6.496;2023-06-01T18:28:24;8.67;;;2.87;;
20042;SDS011;10182;52.896;6.496;2023-06-01T18:33:26;8.73;;;2.40;;
20042;SDS011;10182;52.896;6.496;2023-06-01T18:38:27;8.07;;;3.47;;
20042;SDS011;10182;52.896;6.496;2023-06-01T18:43:30;7.33;;;2.70;;
20042;SDS011;10182;52.896;6.496;2023-06-01T18:48:32;4.87;;;2.40;;
20042;SDS011;10182;52.896;6.496;2023-06-01T18:53:34;7.70;;;2.60;;
20042;SDS011;10182;52.896;6.496;2023-06-01T18:58:37;7.50;;;2.83;;
20042;SDS011;10182;52.896;6.496;2023-06-01T19:03:39;8.97;;;2.70;;
20042;SDS011;10182;52.896;6.496;2023-06-01T19:08:40;7.67;;;2.70;;
20042;SDS011;10182;52.896;6.496;2023-06-01T19:13:44;6.77;;;2.67;;
20042;SDS011;10182;52.896;6.496;2023-06-01T19:18:47;6.87;;;3.17;;
20042;SDS011;10182;52.896;6.496;2023-06-01T19:23:51;7.77;;;3.27;;
20042;SDS011;10182;52.896;6.496;2023-06-01T19:28:56;9.70;;;2.90;;
20042;SDS011;10182;52.896;6.496;2023-06-01T19:34:02;8.80;;;2.93;;
20042;SDS011;10182;52.896;6.496;2023-06-01T19:39:05;11.63;;;3.23;;
20042;SDS011;10182;52.896;6.496;2023-06-01T19:44:10;10.63;;;3.27;;
20042;SDS011;10182;52.896;6.496;2023-06-01T19:49:13;8.73;;;3.40;;
20042;SDS011;10182;52.896;6.496;2023-06-01T19:54:18;9.47;;;3.80;;
20042;SDS011;10182;52.896;6.496;2023-06-01T19:59:23;9.60;;;3.23;;
20042;SDS011;10182;52.896;6.496;2023-06-01T20:04:25;12.50;;;5.27;;
20042;SDS011;10182;52.896;6.496;2023-06-01T20:09:27;8.53;;;3.60;;
20042;SDS011;10182;52.896;6.496;2023-06-01T20:14:30;5.27;;;2.97;;
20042;SDS011;10182;52.896;6.496;2023-06-01T20:19:33;11.97;;;3.47;;
20042;SDS011;10182;52.896;6.496;2023-06-01T20:24:35;10.63;;;3.43;;
20042;SDS011;10182;52.896;6.496;2023-06-01T20:29:38;13.57;;;4.50;;
20042;SDS011;10182;52.896;6.496;2023-06-01T20:34:41;12.60;;;3.60;;
20042;SDS011;10182;52.896;6.496;2023-06-01T20:39:43;10.67;;;3.83;;
20042;SDS011;10182;52.896;6.496;2023-06-01T20:44:46;12.07;;;3.90;;
20042;SDS011;10182;52.896;6.496;2023-06-01T20:49:48;13.90;;;4.07;;
20042;SDS011;10182;52.896;6.496;2023-06-01T20:54:50;17.23;;;3.87;;
20042;SDS011;10182;52.896;6.496;2023-06-01T20:59:53;14.30;;;3.53;;
20042;SDS011;10182;52.896;6.496;2023-06-01T21:04:54;14.97;;;4.37;;
20042;SDS011;10182;52.896;6.496;2023-06-01T21:09:56;10.73;;;4.00;;
20042;SDS011;10182;52.896;6.496;2023-06-01T21:14:59;10.57;;;4.00;;
20042;SDS011;10182;52.896;6.496;2023-06-01T21:20:01;13.37;;;3.70;;
20042;SDS011;10182;52.896;6.496;2023-06-01T21:25:03;9.27;;;4.00;;
20042;SDS011;10182;52.896;6.496;2023-06-01T21:30:07;11.20;;;4.23;;
20042;SDS011;10182;52.896;6.496;2023-06-01T21:35:10;11.73;;;4.00;;
20042;SDS011;10182;52.896;6.496;2023-06-01T21:40:12;9.50;;;3.67;;
20042;SDS011;10182;52.896;6.496;2023-06-01T21:45:15;11.13;;;3.50;;
20042;SDS011;10182;52.896;6.496;2023-06-01T21:50:17;14.47;;;4.20;;
20042;SDS011;10182;52.896;6.496;2023-06-01T21:55:18;16.23;;;3.87;;
20042;SDS011;10182;52.896;6.496;2023-06-01T22:00:22;10.53;;;3.70;;
20042;SDS011;10182;52.896;6.496;2023-06-01T22:05:24;10.50;;;3.93;;
20042;SDS011;10182;52.896;6.496;2023-06-01T22:10:26;12.47;;;3.63;;
20042;SDS011;10182;52.896;6.496;2023-06-01T22:15:29;15.37;;;3.57;;
20042;SDS011;10182;52.896;6.496;2023-06-01T22:20:31;8.97;;;3.33;;
20042;SDS011;10182;52.896;6.496;2023-06-01T22:25:33;13.70;;;4.10;;
20042;SDS011;10182;52.896;6.496;2023-06-01T22:30:36;13.57;;;4.37;;
20042;SDS011;10182;52.896;6.496;2023-06-01T22:35:38;14.30;;;5.10;;
20042;SDS011;10182;52.896;6.496;2023-06-01T22:40:40;12.80;;;4.13;;
20042;SDS011;10182;52.896;6.496;2023-06-01T22:45:43;13.40;;;4.20;;
20042;SDS011;10182;52.896;6.496;2023-06-01T22:50:44;10.83;;;4.20;;
20042;SDS011;10182;52.896;6.496;2023-06-01T22:55:47;8.10;;;4.03;;
20042;SDS011;10182;52.896;6.496;2023-06-01T23:00:50;13.87;;;3.73;;
20042;SDS011;10182;52.896;6.496;2023-06-01T23:05:52;11.07;;;4.30;;
20042;SDS011;10182;52.896;6.496;2023-06-01T23:10:54;13.03;;;4.03;;
20042;SDS011;10182;52.896;6.496;2023-06-01T23:15:58;8.23;;;3.20;;
20042;SDS011;10182;52.896;6.496;2023-06-01T23:21:02;9.80;;;3.93;;
20042;SDS011;10182;52.896;6.496;2023-06-01T23:26:03;12.37;;;3.93;;
20042;SDS011;10182;52.896;6.496;2023-06-01T23:31:07;14.27;;;3.87;;
20042;SDS011;10182;52.896;6.496;2023-06-01T23:36:08;7.67;;;3.23;;
20042;SDS011;10182;52.896;6.496;2023-06-01T23:41:10;10.77;;;3.43;;
20042;SDS011;10182;52.896;6.496;2023-06-01T23:46:14;9.27;;;3.37;;
20042;SDS011;10182;52.896;6.496;2023-06-01T23:51:16;14.30;;;3.53;;
20042;SDS011;10182;52.896;6.496;2023-06-01T23:56:18;13.70;;;3.87;;
